createdAt,value
2019-04-26T00:01:17.089Z,14.10
2019-04-26T00:03:47.829Z,14.00
2019-04-26T00:06:18.664Z,13.90
2019-04-26T00:08:53.183Z,13.90
2019-04-26T00:11:43.044Z,13.80
2019-04-26T00:14:40.311Z,13.70
2019-04-26T00:17:14.160Z,13.70
2019-04-26T00:19:44.431Z,13.60
2019-04-26T00:22:15.290Z,13.50
2019-04-26T00:24:45.262Z,13.50
2019-04-26T00:27:14.933Z,13.40
2019-04-26T00:29:44.762Z,13.40
2019-04-26T00:32:15.047Z,13.30
2019-04-26T00:34:45.150Z,13.20
2019-04-26T00:37:15.858Z,13.20
2019-04-26T00:39:45.695Z,13.10
2019-04-26T00:42:16.477Z,13.10
2019-04-26T00:44:47.062Z,13.10
2019-04-26T00:47:19.052Z,13.00
2019-04-26T00:49:48.872Z,13.00
2019-04-26T00:52:19.530Z,12.90
2019-04-26T00:54:49.980Z,12.90
2019-04-26T00:57:20.351Z,12.80
2019-04-26T00:59:52.130Z,12.80
2019-04-26T01:02:36.489Z,12.80
2019-04-26T01:05:06.358Z,12.70
2019-04-26T01:07:36.068Z,12.70
2019-04-26T01:10:06.336Z,12.70
2019-04-26T01:12:36.075Z,12.60
2019-04-26T01:15:06.672Z,12.60
2019-04-26T01:17:36.387Z,12.60
2019-04-26T01:20:06.524Z,12.70
2019-04-26T01:22:41.642Z,12.60
2019-04-26T01:25:36.418Z,12.70
2019-04-26T01:28:09.259Z,12.70
2019-04-26T01:30:39.803Z,12.70
2019-04-26T01:33:11.738Z,12.70
2019-04-26T01:35:42.306Z,12.60
2019-04-26T01:38:15.886Z,12.60
2019-04-26T01:40:47.502Z,12.60
2019-04-26T01:43:39.055Z,12.60
2019-04-26T01:46:15.048Z,12.60
2019-04-26T01:48:56.567Z,12.60
2019-04-26T01:51:32.933Z,12.60
2019-04-26T01:54:02.791Z,12.50
2019-04-26T01:56:36.337Z,12.40
2019-04-26T01:59:08.377Z,12.40
2019-04-26T02:02:03.492Z,12.40
2019-04-26T02:04:36.249Z,12.40
2019-04-26T02:07:06.355Z,12.40
2019-04-26T02:09:36.030Z,12.40
2019-04-26T02:12:06.544Z,12.40
2019-04-26T02:14:36.320Z,12.40
2019-04-26T02:17:06.300Z,12.30
2019-04-26T02:19:36.165Z,12.30
2019-04-26T02:22:31.938Z,12.30
2019-04-26T02:25:01.923Z,12.30
2019-04-26T02:27:32.517Z,12.20
2019-04-26T02:30:03.154Z,12.10
2019-04-26T02:32:34.432Z,12.00
2019-04-26T02:35:04.827Z,12.00
2019-04-26T02:37:36.877Z,12.00
2019-04-26T02:40:10.470Z,12.00
2019-04-26T02:42:43.033Z,11.90
2019-04-26T02:45:56.222Z,11.80
2019-04-26T02:48:51.028Z,11.80
2019-04-26T02:51:28.522Z,11.70
2019-04-26T02:54:05.776Z,11.60
2019-04-26T02:56:41.960Z,11.50
2019-04-26T02:59:38.779Z,11.50
2019-04-26T03:02:30.199Z,11.40
2019-04-26T03:05:07.219Z,11.40
2019-04-26T03:07:53.737Z,11.30
2019-04-26T03:10:38.652Z,11.30
2019-04-26T03:13:17.105Z,11.20
2019-04-26T03:16:08.194Z,11.20
2019-04-26T03:18:59.848Z,11.20
2019-04-26T03:21:58.948Z,11.10
2019-04-26T03:24:37.198Z,11.10
2019-04-26T03:27:21.249Z,11.10
2019-04-26T03:30:19.523Z,11.10
2019-04-26T03:32:54.239Z,11.10
2019-04-26T03:35:43.894Z,11.10
2019-04-26T03:38:22.858Z,11.10
2019-04-26T03:41:10.186Z,11.10
2019-04-26T03:44:05.670Z,11.10
2019-04-26T03:47:01.804Z,11.20
2019-04-26T03:50:09.199Z,11.20
2019-04-26T03:53:18.319Z,11.20
2019-04-26T03:56:27.579Z,11.30
2019-04-26T03:59:24.946Z,11.50
2019-04-26T04:02:22.368Z,11.60
2019-04-26T04:05:13.169Z,11.70
2019-04-26T04:07:50.890Z,12.00
2019-04-26T04:10:20.384Z,12.20
2019-04-26T04:13:44.501Z,12.50
2019-04-26T04:16:38.696Z,13.20
2019-04-26T04:19:27.339Z,13.80
2019-04-26T04:22:03.368Z,14.00
2019-04-26T04:24:41.324Z,13.90
2019-04-26T04:27:23.354Z,13.80
2019-04-26T04:30:51.953Z,13.70
2019-04-26T04:33:47.360Z,13.70
2019-04-26T04:36:22.840Z,13.80
2019-04-26T04:39:21.723Z,13.80
2019-04-26T04:42:22.973Z,13.80
2019-04-26T04:45:49.500Z,13.90
2019-04-26T04:48:31.544Z,14.00
2019-04-26T04:51:27.719Z,14.10
2019-04-26T04:54:27.128Z,14.10
2019-04-26T04:57:35.049Z,14.30
2019-04-26T05:00:25.901Z,14.30
2019-04-26T05:03:31.746Z,14.40
2019-04-26T05:06:18.954Z,14.50
2019-04-26T05:09:20.087Z,14.60
2019-04-26T05:12:23.809Z,14.70
2019-04-26T05:15:42.203Z,14.80
2019-04-26T05:19:29.319Z,15.00
2019-04-26T05:22:26.875Z,15.10
2019-04-26T05:25:42.284Z,15.20
2019-04-26T05:28:25.712Z,15.40
2019-04-26T05:31:34.235Z,15.50
2019-04-26T05:34:29.081Z,15.60
2019-04-26T05:37:37.884Z,15.80
2019-04-26T05:40:16.348Z,15.90
2019-04-26T05:43:28.364Z,16.00
2019-04-26T05:46:44.802Z,16.20
2019-04-26T05:50:33.336Z,16.30
2019-04-26T05:54:15.550Z,16.30
2019-04-26T05:57:25.470Z,16.50
2019-04-26T06:00:34.024Z,16.70
2019-04-26T06:03:47.297Z,16.90
2019-04-26T06:06:37.584Z,17.10
2019-04-26T06:09:40.185Z,17.20
2019-04-26T06:12:20.215Z,17.30
2019-04-26T06:15:26.489Z,17.40
2019-04-26T06:18:15.199Z,17.50
2019-04-26T06:20:52.965Z,17.70
2019-04-26T06:23:55.711Z,17.90
2019-04-26T06:27:13.581Z,18.00
2019-04-26T06:30:03.180Z,18.10
2019-04-26T06:33:03.220Z,18.20
2019-04-26T06:35:33.195Z,18.30
2019-04-26T06:39:06.216Z,18.40
2019-04-26T06:42:11.497Z,18.60
2019-04-26T06:45:33.676Z,18.70
2019-04-26T06:48:14.500Z,18.90
2019-04-26T06:50:51.302Z,19.10
2019-04-26T06:53:45.455Z,19.20
2019-04-26T06:56:35.913Z,19.30
2019-04-26T06:59:42.329Z,19.40
2019-04-26T07:02:26.052Z,19.50
2019-04-26T07:05:24.254Z,19.60
2019-04-26T07:08:18.652Z,19.70
2019-04-26T07:11:29.636Z,20.00
2019-04-26T07:14:34.746Z,20.10
2019-04-26T07:17:14.189Z,20.20
2019-04-26T07:20:31.711Z,20.40
2019-04-26T07:24:13.335Z,20.40
2019-04-26T07:27:15.061Z,20.60
2019-04-26T07:30:12.841Z,20.80
2019-04-26T07:36:40.192Z,21.10
2019-04-26T07:39:32.593Z,21.20
2019-04-26T07:42:50.869Z,21.20
2019-04-26T07:45:57.951Z,21.30
2019-04-26T07:49:03.258Z,21.40
2019-04-26T07:52:22.760Z,21.50
2019-04-26T07:55:29.993Z,21.70
2019-04-26T07:58:44.531Z,21.80
2019-04-26T08:01:32.875Z,21.90
2019-04-26T08:04:09.480Z,22.10
2019-04-26T08:07:02.749Z,22.20
2019-04-26T08:09:35.392Z,22.20
2019-04-26T08:12:08.089Z,22.40
2019-04-26T08:15:01.991Z,22.40
2019-04-26T08:17:55.695Z,22.50
2019-04-26T08:20:48.236Z,22.60
2019-04-26T08:23:41.150Z,22.70
2019-04-26T08:26:05.091Z,22.80
2019-04-26T08:28:38.862Z,22.90
2019-04-26T08:31:15.529Z,23.00
2019-04-26T08:33:49.874Z,23.20
2019-04-26T08:36:23.226Z,23.30
2019-04-26T08:38:54.775Z,23.40
2019-04-26T08:41:25.513Z,23.50
2019-04-26T08:44:09.744Z,23.60
2019-04-26T08:47:00.204Z,23.70
2019-04-26T08:49:43.771Z,23.80
2019-04-26T08:52:16.354Z,23.90
2019-04-26T08:54:55.518Z,24.00
2019-04-26T08:57:29.459Z,24.10
2019-04-26T09:00:01.731Z,24.30
2019-04-26T09:03:11.520Z,24.30
2019-04-26T09:05:56.052Z,24.50
2019-04-26T09:08:28.716Z,24.50
2019-04-26T09:11:01.490Z,24.70
2019-04-26T09:13:36.611Z,24.70
2019-04-26T09:16:10.849Z,24.80
2019-04-26T09:18:43.469Z,24.90
2019-04-26T09:21:13.242Z,25.00
2019-04-26T09:24:09.358Z,25.10
2019-04-26T09:26:51.856Z,25.20
2019-04-26T09:29:43.261Z,25.40
2019-04-26T09:32:18.871Z,25.50
2019-04-26T09:34:49.184Z,25.40
2019-04-26T09:37:18.919Z,25.40
2019-04-26T09:39:48.582Z,25.50
2019-04-26T09:42:41.024Z,25.70
2019-04-26T09:45:28.817Z,25.80
2019-04-26T09:48:09.372Z,25.90
2019-04-26T09:50:42.557Z,25.80
2019-04-26T09:53:12.653Z,25.90
2019-04-26T09:55:42.350Z,25.90
2019-04-26T09:58:12.089Z,25.90
2019-04-26T10:00:43.997Z,26.00
2019-04-26T10:03:13.122Z,26.10
2019-04-26T10:05:42.858Z,26.00
2019-04-26T10:08:14.400Z,26.10
2019-04-26T10:10:43.862Z,26.40
2019-04-26T10:13:32.466Z,26.50
2019-04-26T10:16:33.587Z,26.60
2019-04-26T10:19:06.895Z,26.80
2019-04-26T10:21:36.579Z,26.90
2019-04-26T10:24:08.377Z,27.00
2019-04-26T10:26:37.632Z,27.10
2019-04-26T10:29:07.387Z,27.10
2019-04-26T10:31:37.062Z,26.90
2019-04-26T10:34:07.746Z,26.90
2019-04-26T10:36:38.179Z,27.00
2019-04-26T10:39:10.724Z,27.30
2019-04-26T10:41:40.444Z,27.30
2019-04-26T10:44:10.198Z,27.30
2019-04-26T10:46:39.900Z,27.20
2019-04-26T10:49:37.898Z,27.10
2019-04-26T10:52:11.898Z,27.10
2019-04-26T10:54:45.925Z,27.10
2019-04-26T10:57:18.572Z,27.10
2019-04-26T10:59:56.892Z,27.00
2019-04-26T11:02:26.587Z,27.00
2019-04-26T11:04:56.415Z,26.90
2019-04-26T11:07:26.515Z,26.80
2019-04-26T11:09:56.175Z,26.70
2019-04-26T11:12:25.939Z,26.70
2019-04-26T11:14:56.924Z,26.70
2019-04-26T11:17:28.305Z,26.70
2019-04-26T11:19:57.999Z,26.70
2019-04-26T11:22:29.207Z,26.70
2019-04-26T11:25:02.908Z,26.70
2019-04-26T11:27:32.570Z,26.70
2019-04-26T11:30:11.959Z,26.70
2019-04-26T11:32:36.789Z,26.80
2019-04-26T11:35:07.650Z,27.00
2019-04-26T11:37:37.376Z,27.20
2019-04-26T11:40:10.236Z,27.30
2019-04-26T11:42:41.867Z,27.30
2019-04-26T11:45:14.615Z,27.30
2019-04-26T11:47:55.424Z,27.30
2019-04-26T11:50:16.460Z,27.20
2019-04-26T11:52:47.249Z,27.10
2019-04-26T11:55:17.596Z,27.00
2019-04-26T11:57:48.828Z,27.00
2019-04-26T12:00:27.502Z,27.00
2019-04-26T12:02:57.823Z,27.00
2019-04-26T12:05:58.666Z,27.00
2019-04-26T12:08:56.191Z,27.00
2019-04-26T12:11:32.547Z,27.00
2019-04-26T12:13:59.518Z,27.10
2019-04-26T12:16:28.623Z,27.10
2019-04-26T12:18:58.303Z,27.10
2019-04-26T12:21:30.451Z,27.10
2019-04-26T12:23:59.910Z,27.10
2019-04-26T12:26:42.125Z,27.30
2019-04-26T12:29:00.925Z,27.30
2019-04-26T12:31:32.019Z,27.40
2019-04-26T12:34:01.791Z,27.40
2019-04-26T12:36:31.475Z,27.50
2019-04-26T12:39:02.266Z,27.50
2019-04-26T12:41:40.193Z,27.50
2019-04-26T12:44:03.947Z,27.60
2019-04-26T12:46:45.577Z,27.70
2019-04-26T12:49:15.268Z,27.80
2019-04-26T12:51:47.431Z,27.80
2019-04-26T12:54:16.342Z,27.90
2019-04-26T12:56:46.014Z,27.90
2019-04-26T12:59:16.029Z,27.80
2019-04-26T13:01:47.563Z,27.70
2019-04-26T13:04:17.646Z,27.70
2019-04-26T13:06:56.618Z,27.60
2019-04-26T13:09:27.959Z,27.60
2019-04-26T13:12:15.289Z,27.60
2019-04-26T13:14:57.438Z,27.50
2019-04-26T13:17:46.022Z,27.50
2019-04-26T13:20:15.726Z,27.40
2019-04-26T13:22:46.384Z,27.40
2019-04-26T13:25:26.236Z,27.30
2019-04-26T13:27:48.118Z,27.30
2019-04-26T13:30:18.010Z,27.30
2019-04-26T13:32:52.910Z,27.30
2019-04-26T13:35:20.513Z,27.30
2019-04-26T13:37:50.212Z,27.20
2019-04-26T13:40:20.389Z,27.20
2019-04-26T13:42:51.464Z,27.30
2019-04-26T13:45:46.527Z,27.30
2019-04-26T13:48:32.323Z,27.40
2019-04-26T13:51:05.824Z,27.60
2019-04-26T13:53:36.082Z,27.80
2019-04-26T13:56:05.835Z,27.90
2019-04-26T13:58:35.543Z,27.80
2019-04-26T14:01:06.062Z,27.80
2019-04-26T14:03:35.776Z,27.80
2019-04-26T14:06:05.547Z,27.70
2019-04-26T14:08:35.268Z,27.60
2019-04-26T14:11:05.257Z,27.50
2019-04-26T14:13:34.990Z,27.50
2019-04-26T14:16:05.798Z,27.40
2019-04-26T14:18:38.964Z,27.40
2019-04-26T14:21:06.810Z,27.40
2019-04-26T14:24:07.184Z,27.40
2019-04-26T14:26:39.961Z,27.30
2019-04-26T14:29:10.503Z,27.10
2019-04-26T14:31:40.187Z,27.00
2019-04-26T14:34:12.079Z,27.00
2019-04-26T14:36:43.638Z,26.90
2019-04-26T14:39:14.884Z,26.80
2019-04-26T14:41:44.060Z,26.70
2019-04-26T14:44:15.804Z,26.60
2019-04-26T14:46:48.826Z,26.60
2019-04-26T14:49:19.258Z,26.50
2019-04-26T14:51:51.260Z,26.50
2019-04-26T14:54:20.319Z,26.50
2019-04-26T14:56:52.303Z,26.70
2019-04-26T14:59:48.834Z,26.80
2019-04-26T15:02:43.295Z,27.00
2019-04-26T15:08:09.610Z,27.40
2019-04-26T15:10:45.791Z,27.50
2019-04-26T15:13:17.182Z,27.40
2019-04-26T15:15:38.893Z,27.30
2019-04-26T15:18:08.702Z,27.20
2019-04-26T15:20:38.391Z,27.10
2019-04-26T15:23:08.139Z,26.90
2019-04-26T15:25:41.409Z,26.80
2019-04-26T15:28:12.080Z,26.80
2019-04-26T15:30:46.386Z,26.60
2019-04-26T15:33:13.836Z,26.50
2019-04-26T15:35:44.378Z,26.40
2019-04-26T15:38:14.128Z,26.40
2019-04-26T15:41:11.694Z,26.30
2019-04-26T15:44:02.723Z,26.20
2019-04-26T15:46:53.737Z,26.10
2019-04-26T15:49:48.510Z,26.00
2019-04-26T15:52:18.297Z,25.90
2019-04-26T15:54:48.010Z,25.90
2019-04-26T15:57:17.692Z,25.80
2019-04-26T15:59:47.428Z,25.70
2019-04-26T16:02:18.423Z,25.60
2019-04-26T16:04:51.402Z,25.60
2019-04-26T16:07:27.280Z,25.50
2019-04-26T16:09:55.971Z,25.50
2019-04-26T16:12:24.571Z,25.40
2019-04-26T16:14:54.422Z,25.40
2019-04-26T16:17:24.145Z,25.30
2019-04-26T16:19:56.193Z,25.30
2019-04-26T16:22:25.907Z,25.30
2019-04-26T16:24:58.141Z,25.40
2019-04-26T16:27:32.379Z,25.30
2019-04-26T16:30:18.627Z,25.30
2019-04-26T16:32:58.850Z,25.20
2019-04-26T16:35:32.405Z,25.10
2019-04-26T16:38:22.484Z,25.10
2019-04-26T16:40:54.984Z,25.00
2019-04-26T16:43:36.682Z,24.90
2019-04-26T16:45:55.479Z,24.90
2019-04-26T16:48:25.805Z,24.80
2019-04-26T16:51:00.886Z,24.80
2019-04-26T16:53:43.566Z,24.70
2019-04-26T16:56:03.673Z,24.70
2019-04-26T16:58:38.264Z,24.50
2019-04-26T17:01:15.516Z,24.50
2019-04-26T17:03:38.198Z,24.30
2019-04-26T17:06:11.424Z,24.20
2019-04-26T17:08:43.333Z,24.10
2019-04-26T17:11:10.255Z,24.00
2019-04-26T17:13:49.231Z,24.00
2019-04-26T17:16:12.752Z,23.80
2019-04-26T17:18:42.842Z,23.70
2019-04-26T17:21:17.502Z,23.60
2019-04-26T17:24:19.167Z,23.40
2019-04-26T17:26:52.388Z,23.40
2019-04-26T17:29:22.593Z,23.30
2019-04-26T17:31:52.418Z,23.10
2019-04-26T17:34:28.471Z,23.00
2019-04-26T17:36:53.463Z,22.80
2019-04-26T17:39:23.211Z,22.70
2019-04-26T17:41:54.364Z,22.60
2019-04-26T17:44:26.663Z,22.40
2019-04-26T17:46:56.940Z,22.30
2019-04-26T17:49:28.770Z,22.10
2019-04-26T17:51:59.880Z,21.90
2019-04-26T17:54:44.376Z,21.70
2019-04-26T17:57:04.476Z,21.50
2019-04-26T17:59:35.868Z,21.40
2019-04-26T18:02:17.985Z,21.30
2019-04-26T18:04:37.399Z,21.20
2019-04-26T18:07:33.755Z,21.10
2019-04-26T18:09:43.867Z,20.90
2019-04-26T18:12:11.887Z,20.80
2019-04-26T18:14:41.851Z,20.70
2019-04-26T18:17:27.883Z,20.60
2019-04-26T18:20:23.540Z,20.50
2019-04-26T18:23:05.202Z,20.50
2019-04-26T18:25:34.357Z,20.40
2019-04-26T18:28:04.654Z,20.30
2019-04-26T18:30:34.731Z,20.20
2019-04-26T18:33:44.444Z,20.00
2019-04-26T18:36:14.154Z,19.90
2019-04-26T18:38:48.479Z,19.80
2019-04-26T18:41:15.199Z,19.70
2019-04-26T18:43:44.961Z,19.60
2019-04-26T18:46:20.477Z,19.50
2019-04-26T18:48:50.162Z,19.40
2019-04-26T18:51:19.867Z,19.30
2019-04-26T18:54:09.375Z,19.20
2019-04-26T18:56:41.241Z,19.10
2019-04-26T18:59:11.742Z,19.00
2019-04-26T19:01:42.411Z,19.00
2019-04-26T19:04:13.536Z,18.90
2019-04-26T19:06:43.567Z,18.80
2019-04-26T19:09:13.994Z,18.70
2019-04-26T19:11:48.446Z,18.70
2019-04-26T19:14:48.734Z,18.60
2019-04-26T19:17:30.191Z,18.60
2019-04-26T19:20:24.807Z,18.50
2019-04-26T19:23:02.967Z,18.40
2019-04-26T19:25:35.637Z,18.30
2019-04-26T19:28:08.166Z,18.30
2019-04-26T19:30:40.026Z,18.20
2019-04-26T19:33:11.504Z,18.10
2019-04-26T19:35:44.036Z,18.10
2019-04-26T19:38:14.557Z,18.00
2019-04-26T19:40:46.562Z,17.90
2019-04-26T19:43:27.612Z,17.80
2019-04-26T19:45:55.159Z,17.70
2019-04-26T19:48:35.440Z,17.70
2019-04-26T19:51:29.989Z,17.70
2019-04-26T19:54:06.101Z,17.70
2019-04-26T19:56:45.451Z,17.70
2019-04-26T19:59:15.154Z,17.70
2019-04-26T20:01:45.057Z,17.70
2019-04-26T20:04:14.812Z,17.60
2019-04-26T20:06:48.509Z,17.60
2019-04-26T20:09:17.659Z,17.60
2019-04-26T20:11:51.359Z,17.50
2019-04-26T20:14:19.115Z,17.40
2019-04-26T20:16:49.199Z,17.30
2019-04-26T20:19:31.640Z,17.20
2019-04-26T20:21:52.711Z,17.10
2019-04-26T20:24:22.321Z,17.00
2019-04-26T20:26:52.383Z,17.00
2019-04-26T20:29:23.192Z,16.90
2019-04-26T20:32:12.533Z,16.80
2019-04-26T20:34:49.361Z,16.70
2019-04-26T20:37:23.100Z,16.60
2019-04-26T20:39:55.795Z,16.50
2019-04-26T20:42:22.342Z,16.50
2019-04-26T20:44:53.818Z,16.40
2019-04-26T20:47:23.834Z,16.40
2019-04-26T20:50:00.850Z,16.30
2019-04-26T20:52:25.109Z,16.20
2019-04-26T20:54:55.247Z,16.10
2019-04-26T20:57:26.709Z,16.10
2019-04-26T21:00:01.567Z,16.10
2019-04-26T21:02:27.725Z,16.00
2019-04-26T21:04:57.431Z,15.90
2019-04-26T21:07:27.187Z,15.80
2019-04-26T21:09:56.953Z,15.70
2019-04-26T21:12:26.653Z,15.70
2019-04-26T21:14:56.385Z,15.60
2019-04-26T21:17:27.752Z,15.50
2019-04-26T21:19:58.674Z,15.50
2019-04-26T21:22:28.914Z,15.40
2019-04-26T21:25:04.777Z,15.30
2019-04-26T21:27:53.254Z,15.30
2019-04-26T21:30:38.697Z,15.30
2019-04-26T21:33:21.084Z,15.20
2019-04-26T21:36:02.034Z,15.10
2019-04-26T21:38:47.060Z,15.10
2019-04-26T21:41:19.588Z,15.10
2019-04-26T21:43:49.299Z,15.00
2019-04-26T21:46:20.124Z,15.00
2019-04-26T21:48:49.979Z,15.00
2019-04-26T21:51:19.759Z,14.90
2019-04-26T21:53:49.483Z,14.80
2019-04-26T21:56:19.459Z,14.90
2019-04-26T21:58:49.152Z,14.90
2019-04-26T22:01:24.913Z,14.90
2019-04-26T22:03:58.310Z,14.80
2019-04-26T22:06:28.639Z,14.70
2019-04-26T22:09:17.923Z,14.50
2019-04-26T22:11:49.424Z,14.40
2019-04-26T22:14:23.664Z,14.30
2019-04-26T22:17:02.044Z,14.20
2019-04-26T22:19:36.852Z,14.10
2019-04-26T22:22:20.490Z,14.10
2019-04-26T22:24:50.924Z,14.00
2019-04-26T22:27:21.786Z,13.90
2019-04-26T22:29:52.829Z,13.90
2019-04-26T22:32:23.449Z,13.80
2019-04-26T22:34:53.851Z,13.70
2019-04-26T22:37:30.045Z,13.70
2019-04-26T22:39:57.103Z,13.60
2019-04-26T22:42:27.686Z,13.60
2019-04-26T22:45:16.364Z,13.50
2019-04-26T22:47:59.797Z,13.40
2019-04-26T22:50:29.508Z,13.40
2019-04-26T22:52:59.255Z,13.40
2019-04-26T22:55:29.009Z,13.30
2019-04-26T22:57:58.792Z,13.30
2019-04-26T23:00:33.121Z,13.20
2019-04-26T23:03:07.045Z,13.20
2019-04-26T23:05:35.585Z,13.10
2019-04-26T23:08:06.179Z,13.10
2019-04-26T23:10:42.952Z,13.10
2019-04-26T23:13:26.347Z,13.00
2019-04-26T23:16:11.454Z,13.00
2019-04-26T23:19:00.157Z,12.90
2019-04-26T23:21:33.917Z,12.90
2019-04-26T23:24:04.117Z,12.90
2019-04-26T23:26:37.562Z,12.80
2019-04-26T23:29:08.687Z,12.80
2019-04-26T23:31:37.474Z,12.70
2019-04-26T23:34:07.550Z,12.70
2019-04-26T23:36:37.274Z,12.60
2019-04-26T23:39:12.064Z,12.60
2019-04-26T23:41:41.628Z,12.60
2019-04-26T23:44:10.987Z,12.60
2019-04-26T23:46:40.668Z,12.50
2019-04-26T23:49:10.407Z,12.40
2019-04-26T23:51:43.035Z,12.40
2019-04-26T23:54:11.435Z,12.40
2019-04-26T23:56:41.131Z,12.40
2019-04-26T23:59:15.023Z,12.30
